Time;durP1;ratioP1;P1;durP2;ratioP2;P2;SDS_P1;SDS_P2;PMS_P1;PMS_P2;Temp;Humidity;BMP_temperature;BMP_pressure;BME280_temperature;BME280_humidity;BME280_pressure;Samples;Min_cycle;Max_cycle;Signal;HPM_P1;HPM_P2
2022/01/29 00:00:00;;;;;;;31.75;11.80;;;6.90;99.90;;;;;;5101346;28;20048;-83
2022/01/29 00:02:26;;;;;;;23.15;11.27;;;7.00;99.90;;;;;;5105053;28;20082;-84
2022/01/29 00:04:51;;;;;;;26.98;10.77;;;7.00;99.90;;;;;;5069339;28;20082;-85
2022/01/29 00:07:17;;;;;;;40.22;13.65;;;6.90;99.90;;;;;;5095101;28;20150;-83
2022/01/29 00:09:44;;;;;;;26.90;12.98;;;6.90;99.90;;;;;;5100213;28;20062;-80
2022/01/29 00:12:10;;;;;;;28.98;10.82;;;6.80;99.90;;;;;;5077715;28;20114;-83
2022/01/29 00:14:37;;;;;;;36.80;12.63;;;6.80;99.90;;;;;;5090934;28;20063;-81
2022/01/29 00:17:03;;;;;;;28.45;15.10;;;6.80;99.90;;;;;;5114998;28;20933;-83
2022/01/29 00:19:28;;;;;;;30.50;14.13;;;6.80;99.90;;;;;;5101355;28;20058;-82
2022/01/29 00:21:54;;;;;;;42.58;14.77;;;6.80;99.90;;;;;;5083608;28;20130;-84
2022/01/29 00:24:20;;;;;;;42.03;14.27;;;6.80;99.90;;;;;;5092348;28;20040;-84
2022/01/29 00:26:46;;;;;;;48.38;18.33;;;6.70;99.90;;;;;;5091537;28;20039;-85
2022/01/29 00:29:19;;;;;;;31.13;15.65;;;6.70;99.90;;;;;;5057127;28;20090;-85
2022/01/29 00:31:45;;;;;;;40.05;15.80;;;6.80;99.90;;;;;;5108582;28;20052;-85
2022/01/29 00:34:10;;;;;;;49.08;16.50;;;6.70;99.90;;;;;;5098291;28;20044;-83
2022/01/29 00:36:36;;;;;;;36.63;17.00;;;6.80;99.90;;;;;;5092209;28;20080;-84
2022/01/29 00:39:02;;;;;;;32.80;15.98;;;6.70;99.90;;;;;;5084525;28;20170;-84
2022/01/29 00:41:27;;;;;;;37.20;15.75;;;6.70;99.90;;;;;;5091523;28;20082;-84
2022/01/29 00:43:53;;;;;;;41.60;16.85;;;6.80;99.90;;;;;;5102070;28;20058;-83
2022/01/29 00:46:19;;;;;;;53.72;18.83;;;6.70;99.90;;;;;;5085575;27;20089;-82
2022/01/29 00:48:44;;;;;;;37.05;14.68;;;6.80;99.90;;;;;;5097897;27;20055;-82
2022/01/29 00:51:10;;;;;;;39.65;16.83;;;6.80;99.90;;;;;;5092788;28;20440;-82
2022/01/29 00:53:35;;;;;;;34.33;15.82;;;6.80;99.90;;;;;;5090074;28;20035;-83
2022/01/29 00:56:06;;;;;;;29.25;16.05;;;6.90;99.90;;;;;;5055163;28;20078;-85
2022/01/29 00:58:32;;;;;;;47.75;14.88;;;6.80;99.90;;;;;;5091227;28;20048;-84
2022/01/29 01:00:57;;;;;;;37.78;16.95;;;6.80;99.90;;;;;;5072500;28;20048;-82
2022/01/29 01:03:23;;;;;;;48.92;19.23;;;6.80;99.90;;;;;;5089734;28;20032;-83
2022/01/29 01:05:48;;;;;;;27.25;16.17;;;6.80;99.90;;;;;;5097105;28;20374;-85
2022/01/29 01:08:14;;;;;;;33.30;18.20;;;6.90;99.90;;;;;;5108519;28;20036;-83
2022/01/29 01:10:40;;;;;;;38.95;18.70;;;6.90;99.90;;;;;;5100184;28;20099;-82
2022/01/29 01:13:05;;;;;;;34.53;17.17;;;7.00;99.90;;;;;;5091979;28;20443;-84
2022/01/29 01:15:31;;;;;;;77.43;21.50;;;6.90;99.90;;;;;;5109155;28;20040;-82
2022/01/29 01:17:57;;;;;;;31.52;15.80;;;6.90;99.90;;;;;;5103332;28;20063;-82
2022/01/29 01:20:22;;;;;;;39.85;17.30;;;7.00;99.90;;;;;;5100063;28;20456;-83
2022/01/29 01:22:48;;;;;;;45.28;16.73;;;7.00;99.90;;;;;;5102089;28;20038;-83
2022/01/29 01:25:14;;;;;;;29.50;16.15;;;6.90;99.90;;;;;;5072057;28;20482;-81
2022/01/29 01:27:39;;;;;;;45.78;20.10;;;7.00;99.90;;;;;;5091542;28;20475;-83
2022/01/29 01:30:06;;;;;;;53.70;18.50;;;6.90;99.90;;;;;;5093764;28;20036;-83
2022/01/29 01:32:32;;;;;;;37.42;17.30;;;7.00;99.90;;;;;;5063070;28;20113;-83
2022/01/29 01:35:07;;;;;;;34.22;14.77;;;7.00;99.90;;;;;;5076918;28;20490;-84
2022/01/29 01:37:40;;;;;;;35.88;17.92;;;7.00;99.90;;;;;;5064606;28;20036;-84
2022/01/29 01:40:07;;;;;;;40.97;17.75;;;7.10;99.90;;;;;;5097259;28;20048;-81
2022/01/29 01:42:33;;;;;;;41.30;18.10;;;7.10;99.90;;;;;;5101106;28;20101;-83
2022/01/29 01:44:59;;;;;;;34.03;15.48;;;7.00;99.90;;;;;;5084562;28;20482;-83
2022/01/29 01:47:24;;;;;;;42.03;17.50;;;7.10;99.90;;;;;;5104732;28;20051;-83
2022/01/29 01:49:50;;;;;;;43.20;18.17;;;7.20;99.90;;;;;;5111610;28;20040;-82
2022/01/29 01:52:17;;;;;;;55.75;18.27;;;7.10;99.90;;;;;;5111181;28;20032;-82
2022/01/29 01:54:43;;;;;;;34.88;14.82;;;7.20;99.90;;;;;;5082375;28;20072;-79
2022/01/29 01:57:09;;;;;;;40.33;16.60;;;7.10;99.90;;;;;;5106360;28;20044;-80
2022/01/29 01:59:35;;;;;;;37.80;14.73;;;7.20;99.90;;;;;;5113322;28;20035;-83
2022/01/29 02:02:01;;;;;;;42.75;15.68;;;7.20;99.90;;;;;;5108422;28;20119;-82
2022/01/29 02:04:27;;;;;;;34.63;13.60;;;7.20;99.90;;;;;;5087358;28;20044;-83
2022/01/29 02:06:53;;;;;;;31.52;13.95;;;7.30;99.90;;;;;;5104052;28;20063;-83
2022/01/29 02:09:22;;;;;;;42.28;17.48;;;7.30;99.90;;;;;;5108262;28;20085;-82
2022/01/29 02:11:52;;;;;;;27.27;15.73;;;7.30;99.90;;;;;;5115574;28;20047;-83
2022/01/29 02:14:20;;;;;;;29.73;13.93;;;7.30;99.90;;;;;;5113366;28;20050;-81
2022/01/29 02:16:46;;;;;;;25.15;12.32;;;7.30;99.90;;;;;;5113569;28;20040;-83
2022/01/29 02:19:11;;;;;;;34.40;16.40;;;7.30;99.90;;;;;;5119089;28;20058;-85
2022/01/29 02:21:38;;;;;;;32.35;15.57;;;7.30;99.90;;;;;;5085820;28;20079;-83
2022/01/29 02:24:04;;;;;;;32.40;13.65;;;7.40;99.90;;;;;;5105200;27;20042;-85
2022/01/29 02:26:30;;;;;;;28.90;15.13;;;7.40;99.90;;;;;;5100890;28;20462;-85
2022/01/29 02:28:56;;;;;;;41.17;15.43;;;7.40;99.90;;;;;;5100709;28;20032;-85
2022/01/29 02:31:22;;;;;;;36.63;14.95;;;7.40;99.90;;;;;;5104135;28;20145;-85
2022/01/29 02:33:48;;;;;;;32.05;13.48;;;7.50;99.90;;;;;;5081529;28;20075;-84
2022/01/29 02:36:13;;;;;;;65.57;17.92;;;7.50;99.90;;;;;;5106776;28;20060;-84
2022/01/29 02:38:39;;;;;;;42.75;17.15;;;7.50;99.90;;;;;;5101826;28;20482;-84
2022/01/29 02:41:06;;;;;;;33.00;14.38;;;7.50;99.90;;;;;;5094518;28;20060;-83
2022/01/29 02:43:47;;;;;;;40.17;17.48;;;7.50;99.90;;;;;;5112749;28;20130;-84
2022/01/29 02:48:45;;;;;;;36.25;15.60;;;7.60;99.90;;;;;;5109834;28;20043;-86
2022/01/29 02:51:11;;;;;;;45.47;17.42;;;7.60;99.90;;;;;;5102100;28;20148;-84
2022/01/29 02:53:38;;;;;;;30.63;14.65;;;7.70;99.90;;;;;;5094239;28;20494;-83
2022/01/29 02:56:05;;;;;;;40.97;16.58;;;7.60;99.90;;;;;;5092899;28;20397;-83
2022/01/29 02:58:31;;;;;;;31.60;14.40;;;7.70;99.90;;;;;;5094310;28;20135;-83
2022/01/29 03:00:56;;;;;;;43.67;17.05;;;7.70;99.90;;;;;;5103959;28;20067;-84
2022/01/29 03:03:22;;;;;;;26.38;17.20;;;7.70;99.90;;;;;;5088634;28;20044;-83
2022/01/29 03:05:48;;;;;;;32.28;15.13;;;7.70;99.90;;;;;;5094824;28;20496;-84
2022/01/29 03:08:13;;;;;;;40.00;17.08;;;7.70;99.90;;;;;;5093621;28;20036;-82
2022/01/29 03:10:39;;;;;;;26.58;13.75;;;7.80;99.90;;;;;;5110074;28;20031;-82
2022/01/29 03:13:05;;;;;;;31.23;16.05;;;7.70;99.90;;;;;;5121904;28;20484;-83
2022/01/29 03:15:31;;;;;;;29.77;14.75;;;7.80;99.90;;;;;;5093038;28;20111;-81
2022/01/29 03:17:56;;;;;;;25.67;15.15;;;7.80;99.90;;;;;;5098567;28;20061;-83
2022/01/29 03:20:22;;;;;;;31.05;16.10;;;7.70;99.90;;;;;;5104229;28;20127;-82
2022/01/29 03:22:48;;;;;;;30.90;13.82;;;7.70;99.90;;;;;;5104234;28;20044;-81
2022/01/29 03:25:16;;;;;;;36.70;16.30;;;7.70;99.90;;;;;;5110858;28;20035;-80
2022/01/29 03:27:41;;;;;;;31.35;13.48;;;7.70;99.90;;;;;;5122936;28;20040;-82
2022/01/29 03:30:07;;;;;;;30.63;15.18;;;7.80;99.90;;;;;;5104142;28;20394;-84
2022/01/29 03:32:33;;;;;;;39.05;16.35;;;7.70;99.90;;;;;;5082032;28;20108;-84
2022/01/29 03:34:59;;;;;;;32.92;16.45;;;7.80;99.90;;;;;;5102715;27;20052;-83
2022/01/29 03:37:25;;;;;;;38.08;17.38;;;7.70;99.90;;;;;;5093650;28;20036;-86
2022/01/29 03:39:51;;;;;;;31.25;17.55;;;7.80;99.90;;;;;;5099539;28;20177;-83
2022/01/29 03:42:17;;;;;;;39.42;17.98;;;7.70;99.90;;;;;;5078674;28;20067;-82
2022/01/29 03:44:43;;;;;;;29.60;13.93;;;7.70;99.90;;;;;;5085759;28;20083;-79
2022/01/29 03:47:09;;;;;;;36.20;16.10;;;7.80;99.90;;;;;;5097338;28;20043;-84
2022/01/29 03:49:34;;;;;;;51.22;19.85;;;7.70;99.90;;;;;;5095855;28;20409;-81
2022/01/29 03:52:00;;;;;;;40.75;16.92;;;7.80;99.90;;;;;;5098351;28;20040;-83
2022/01/29 03:54:26;;;;;;;34.30;16.85;;;7.80;99.90;;;;;;5098138;28;20108;-84
2022/01/29 03:56:51;;;;;;;41.45;18.25;;;7.70;99.90;;;;;;5096198;28;20039;-82
2022/01/29 03:59:17;;;;;;;34.15;17.20;;;7.80;99.90;;;;;;5109347;28;20126;-83
2022/01/29 04:01:42;;;;;;;32.72;17.27;;;7.70;99.90;;;;;;5075015;28;20051;-76
2022/01/29 04:04:08;;;;;;;30.38;15.75;;;7.80;99.90;;;;;;5104571;28;20051;-82
2022/01/29 04:06:33;;;;;;;39.70;17.00;;;7.80;99.90;;;;;;5099136;28;20046;-84
2022/01/29 04:09:04;;;;;;;32.78;15.23;;;7.90;99.90;;;;;;5098022;28;20075;-83
2022/01/29 04:11:29;;;;;;;35.45;17.15;;;7.90;99.90;;;;;;5074934;28;20039;-84
2022/01/29 04:13:55;;;;;;;34.58;16.63;;;7.90;99.90;;;;;;5092922;28;20100;-81
2022/01/29 04:16:21;;;;;;;34.75;16.63;;;7.90;99.90;;;;;;5107613;28;20059;-83
2022/01/29 04:18:46;;;;;;;40.13;17.02;;;7.80;99.90;;;;;;5093546;28;20083;-86
2022/01/29 04:21:12;;;;;;;46.22;19.27;;;7.90;99.90;;;;;;5094912;28;20040;-84
2022/01/29 04:23:38;;;;;;;37.80;17.35;;;7.90;99.90;;;;;;5117983;27;20378;-83
2022/01/29 04:26:05;;;;;;;32.58;16.85;;;7.90;99.90;;;;;;5108495;28;20047;-84
2022/01/29 04:28:36;;;;;;;32.72;16.10;;;7.90;99.90;;;;;;5089792;28;20036;-82
2022/01/29 04:31:09;;;;;;;35.17;15.25;;;7.90;99.90;;;;;;5090602;28;20048;-83
2022/01/29 04:33:35;;;;;;;33.92;17.30;;;7.90;99.90;;;;;;5078120;28;20039;-83
2022/01/29 04:36:03;;;;;;;31.20;16.17;;;8.00;99.90;;;;;;5090987;28;20120;-83
2022/01/29 04:38:29;;;;;;;28.63;16.55;;;8.00;99.90;;;;;;5107410;28;20404;-83
2022/01/29 04:40:56;;;;;;;34.15;16.50;;;8.00;99.90;;;;;;5093292;28;20044;-82
2022/01/29 04:43:22;;;;;;;32.65;17.50;;;8.00;99.90;;;;;;5110099;28;20046;-83
2022/01/29 04:45:47;;;;;;;28.92;15.30;;;8.00;99.90;;;;;;5095591;27;20489;-84
2022/01/29 04:48:13;;;;;;;31.15;17.13;;;8.00;99.90;;;;;;5106371;28;20482;-82
2022/01/29 04:50:39;;;;;;;26.38;15.95;;;8.00;99.90;;;;;;5109547;28;20093;-84
2022/01/29 04:53:05;;;;;;;32.20;14.85;;;8.00;99.90;;;;;;5096119;28;20040;-83
2022/01/29 04:55:32;;;;;;;24.63;14.02;;;8.10;99.90;;;;;;5091614;28;20516;-82
2022/01/29 04:57:57;;;;;;;27.77;15.75;;;8.10;99.90;;;;;;5102489;28;20044;-83
2022/01/29 05:00:23;;;;;;;30.92;16.55;;;8.10;99.90;;;;;;5072789;28;20055;-84
2022/01/29 05:02:51;;;;;;;28.33;15.45;;;8.10;99.90;;;;;;5090468;28;20044;-84
2022/01/29 05:05:17;;;;;;;35.45;15.48;;;8.00;99.90;;;;;;5091171;28;20059;-82
2022/01/29 05:07:43;;;;;;;24.02;15.38;;;8.10;99.90;;;;;;5090168;28;20044;-80
2022/01/29 05:10:10;;;;;;;33.05;15.38;;;8.10;99.90;;;;;;5090138;28;20081;-80
2022/01/29 05:13:24;;;;;;;28.60;14.63;;;8.10;99.90;;;;;;5080218;28;20039;-85
2022/01/29 05:15:34;;;;;;;24.48;14.43;;;8.10;99.90;;;;;;5088315;28;20104;-81
2022/01/29 05:28:57;;;;;;;27.85;15.52;;;8.20;99.90;;;;;;5095956;28;20504;-82
2022/01/29 05:31:23;;;;;;;18.50;13.27;;;8.30;99.90;;;;;;5093653;28;20085;-82
2022/01/29 05:33:48;;;;;;;30.67;16.17;;;8.30;99.90;;;;;;5096029;28;20557;-84
2022/01/29 05:36:14;;;;;;;29.90;17.50;;;8.30;99.90;;;;;;5109748;28;20096;-82
2022/01/29 05:38:40;;;;;;;26.75;15.10;;;8.20;99.90;;;;;;5101196;28;20040;-83
2022/01/29 05:41:05;;;;;;;25.42;13.32;;;8.30;99.90;;;;;;5088505;28;20068;-82
2022/01/29 05:43:31;;;;;;;30.70;15.15;;;8.30;99.90;;;;;;5106702;28;20530;-83
2022/01/29 05:45:57;;;;;;;18.25;13.30;;;8.30;99.90;;;;;;5105066;28;20055;-84
2022/01/29 05:48:23;;;;;;;27.73;13.65;;;8.30;99.90;;;;;;5093558;28;20436;-83
2022/01/29 05:50:48;;;;;;;22.63;15.18;;;8.30;99.90;;;;;;5072731;28;20052;-82
2022/01/29 05:53:14;;;;;;;22.88;13.65;;;8.30;99.90;;;;;;5092466;28;20032;-82
2022/01/29 05:55:40;;;;;;;22.98;13.32;;;8.30;99.90;;;;;;5090418;28;20060;-83
2022/01/29 05:58:05;;;;;;;28.35;12.40;;;8.40;99.90;;;;;;5071958;28;20567;-83
2022/01/29 06:00:31;;;;;;;23.10;13.23;;;8.40;99.90;;;;;;5090858;28;20043;-83
2022/01/29 06:03:02;;;;;;;34.25;15.20;;;8.40;99.90;;;;;;5089409;28;20447;-83
2022/01/29 06:05:28;;;;;;;29.70;15.88;;;8.40;99.90;;;;;;5090171;28;20044;-83
2022/01/29 06:07:53;;;;;;;25.55;14.52;;;8.40;99.90;;;;;;5090034;28;20042;-83
2022/01/29 06:10:19;;;;;;;23.23;13.80;;;8.40;99.90;;;;;;5072648;28;20044;-84
2022/01/29 06:12:55;;;;;;;23.90;14.02;;;8.40;99.90;;;;;;5092001;28;20032;-83
2022/01/29 06:15:21;;;;;;;18.10;12.48;;;8.30;99.90;;;;;;5110799;28;20062;-83
2022/01/29 06:17:46;;;;;;;22.42;12.73;;;8.40;99.90;;;;;;5091867;28;20148;-84
2022/01/29 06:20:12;;;;;;;23.42;13.25;;;8.40;99.90;;;;;;5087808;28;20043;-84
2022/01/29 06:22:41;;;;;;;25.58;13.77;;;8.40;99.90;;;;;;5089240;28;20081;-81
2022/01/29 06:25:07;;;;;;;19.92;11.40;;;8.40;99.90;;;;;;5097905;28;20040;-84
2022/01/29 06:27:32;;;;;;;26.40;15.23;;;8.40;99.90;;;;;;5089726;28;20070;-81
2022/01/29 06:29:58;;;;;;;24.48;13.32;;;8.50;99.90;;;;;;5072015;28;20040;-84
2022/01/29 06:32:24;;;;;;;21.65;14.27;;;8.40;99.90;;;;;;5090364;28;20032;-83
2022/01/29 06:34:50;;;;;;;23.40;13.02;;;8.40;99.90;;;;;;5090092;28;20147;-83
2022/01/29 06:37:16;;;;;;;23.45;11.63;;;8.40;99.90;;;;;;5089306;28;20123;-82
2022/01/29 06:39:42;;;;;;;23.70;12.68;;;8.50;99.90;;;;;;5092798;28;20168;-82
2022/01/29 06:42:07;;;;;;;24.02;13.98;;;8.40;99.90;;;;;;5103417;28;20031;-82
2022/01/29 06:44:33;;;;;;;22.10;12.82;;;8.40;99.90;;;;;;5086074;28;20539;-81
2022/01/29 06:46:58;;;;;;;17.95;12.13;;;8.50;99.90;;;;;;5076740;28;20044;-82
2022/01/29 06:49:24;;;;;;;19.35;12.68;;;8.50;99.90;;;;;;5065109;28;20461;-83
2022/01/29 06:51:50;;;;;;;24.73;11.68;;;8.50;99.90;;;;;;5082448;28;20034;-84
2022/01/29 06:54:15;;;;;;;21.15;11.88;;;8.50;99.90;;;;;;5117016;28;20036;-83
2022/01/29 06:56:41;;;;;;;22.30;11.90;;;8.50;99.90;;;;;;5087355;28;20040;-84
2022/01/29 06:59:06;;;;;;;22.23;11.57;;;8.40;99.90;;;;;;5095071;28;20390;-82
2022/01/29 07:01:32;;;;;;;17.95;11.38;;;8.50;99.90;;;;;;5085937;28;20044;-81
2022/01/29 07:03:57;;;;;;;26.48;14.65;;;8.40;99.90;;;;;;5110661;28;20566;-82
2022/01/29 07:06:23;;;;;;;50.30;12.82;;;8.40;99.90;;;;;;5085759;28;20506;-82
2022/01/29 07:08:49;;;;;;;18.77;11.57;;;8.40;99.90;;;;;;5083956;28;20097;-82
2022/01/29 07:11:19;;;;;;;24.52;12.85;;;8.50;99.90;;;;;;5095553;28;20062;-83
2022/01/29 07:13:44;;;;;;;23.98;11.43;;;8.50;99.90;;;;;;5075407;28;20398;-83
2022/01/29 07:16:10;;;;;;;20.30;11.07;;;8.50;99.90;;;;;;5092965;28;20051;-85
2022/01/29 07:18:36;;;;;;;17.27;10.48;;;8.50;99.90;;;;;;5099997;28;20035;-84
2022/01/29 07:21:01;;;;;;;17.45;10.93;;;8.40;99.90;;;;;;5076283;28;20454;-83
2022/01/29 07:23:27;;;;;;;31.40;12.98;;;8.50;99.90;;;;;;5101531;28;20040;-83
2022/01/29 07:25:53;;;;;;;19.50;10.40;;;8.50;99.90;;;;;;5112791;28;20075;-82
2022/01/29 07:28:19;;;;;;;15.32;9.25;;;8.50;99.90;;;;;;5112039;28;20063;-83
2022/01/29 07:30:45;;;;;;;16.73;10.52;;;8.50;99.90;;;;;;5085167;28;20055;-84
2022/01/29 07:33:11;;;;;;;24.85;11.00;;;8.50;99.90;;;;;;5101754;28;20437;-81
2022/01/29 07:35:36;;;;;;;18.67;11.55;;;8.50;99.90;;;;;;5060264;28;20139;-82
2022/01/29 07:38:02;;;;;;;24.40;11.65;;;8.50;99.90;;;;;;5092663;28;20054;-82
2022/01/29 07:40:28;;;;;;;27.50;12.50;;;8.40;99.90;;;;;;5100430;28;20070;-83
2022/01/29 07:42:53;;;;;;;15.75;10.10;;;8.50;99.90;;;;;;5082052;28;20040;-81
2022/01/29 07:45:19;;;;;;;28.92;12.25;;;8.50;99.90;;;;;;5076082;28;20051;-81
2022/01/29 07:47:44;;;;;;;26.58;11.05;;;8.50;99.90;;;;;;5106577;27;20056;-82
2022/01/29 07:50:10;;;;;;;16.70;10.70;;;8.50;99.90;;;;;;5100934;28;20083;-82
2022/01/29 07:52:36;;;;;;;27.17;10.20;;;8.50;99.90;;;;;;5110443;28;20122;-83
2022/01/29 07:55:01;;;;;;;22.58;10.27;;;8.60;99.90;;;;;;5079535;28;20098;-84
2022/01/29 07:57:27;;;;;;;20.10;9.75;;;8.60;99.90;;;;;;5072894;28;20371;-82
2022/01/29 07:59:53;;;;;;;23.77;10.02;;;8.60;99.90;;;;;;5072694;28;20044;-82
2022/01/29 08:02:19;;;;;;;19.13;10.05;;;8.60;99.90;;;;;;5092027;28;20505;-84
2022/01/29 08:04:45;;;;;;;19.60;9.02;;;8.60;99.90;;;;;;5110714;28;20051;-84
2022/01/29 08:07:10;;;;;;;23.33;10.02;;;8.70;99.90;;;;;;5109090;27;20131;-82
2022/01/29 08:09:36;;;;;;;18.15;8.77;;;8.70;99.90;;;;;;5109690;28;20050;-82
2022/01/29 08:12:01;;;;;;;18.88;8.05;;;8.70;99.90;;;;;;5101527;28;20039;-82
2022/01/29 08:14:27;;;;;;;17.08;9.15;;;8.70;99.90;;;;;;5076554;28;20791;-83
2022/01/29 08:16:53;;;;;;;18.42;8.05;;;8.70;99.90;;;;;;5099417;28;20061;-83
2022/01/29 08:19:18;;;;;;;20.95;8.98;;;8.80;99.90;;;;;;5106640;28;20126;-81
2022/01/29 08:21:44;;;;;;;18.90;9.55;;;8.80;99.90;;;;;;5064045;28;20036;-83
2022/01/29 08:24:09;;;;;;;19.45;8.90;;;8.80;99.90;;;;;;5077404;28;21252;-82
2022/01/29 08:26:35;;;;;;;19.70;9.27;;;8.80;99.90;;;;;;5112148;28;20041;-83
2022/01/29 08:29:01;;;;;;;24.52;7.20;;;8.80;99.90;;;;;;5113149;28;20093;-83
2022/01/29 08:31:26;;;;;;;20.17;7.50;;;8.80;99.90;;;;;;5103243;28;20043;-83
2022/01/29 08:33:52;;;;;;;11.23;6.75;;;8.80;99.90;;;;;;5118700;27;20031;-86
2022/01/29 08:36:17;;;;;;;19.20;7.70;;;8.90;99.90;;;;;;5100875;27;20040;-84
2022/01/29 08:38:43;;;;;;;17.08;7.60;;;8.90;99.90;;;;;;5097852;27;20036;-85
2022/01/29 08:41:09;;;;;;;15.52;7.18;;;8.90;99.90;;;;;;5085346;28;20474;-84
2022/01/29 08:43:34;;;;;;;12.38;6.60;;;9.00;99.90;;;;;;5120482;28;20154;-82
2022/01/29 08:46:02;;;;;;;16.20;8.23;;;9.00;99.90;;;;;;5117647;28;20044;-85
2022/01/29 08:48:27;;;;;;;9.13;6.00;;;9.10;99.90;;;;;;5106163;28;20086;-88
2022/01/29 08:50:53;;;;;;;11.15;5.40;;;9.00;99.90;;;;;;5098366;28;20466;-85
2022/01/29 08:53:19;;;;;;;8.88;5.20;;;9.10;99.90;;;;;;5086892;28;20126;-84
2022/01/29 08:55:45;;;;;;;12.63;5.70;;;9.20;99.90;;;;;;5108254;28;20047;-85
2022/01/29 08:58:11;;;;;;;14.48;5.63;;;9.20;99.90;;;;;;5085100;28;20113;-85
2022/01/29 09:00:39;;;;;;;9.95;4.93;;;9.10;99.90;;;;;;5074543;28;20085;-84
2022/01/29 09:03:06;;;;;;;14.07;4.55;;;9.20;99.90;;;;;;5093112;28;20039;-85
2022/01/29 09:05:32;;;;;;;9.93;5.03;;;9.20;99.90;;;;;;5092707;28;20162;-83
2022/01/29 09:07:58;;;;;;;10.70;4.65;;;9.20;99.90;;;;;;5098816;27;20671;-85
2022/01/29 09:10:26;;;;;;;14.93;5.75;;;9.20;99.90;;;;;;5108833;28;20453;-84
2022/01/29 09:12:52;;;;;;;10.75;4.57;;;9.30;99.90;;;;;;5099976;28;20052;-88
2022/01/29 09:15:18;;;;;;;14.70;5.55;;;9.30;99.90;;;;;;5099085;28;20039;-85
2022/01/29 09:17:43;;;;;;;10.88;4.93;;;9.30;99.90;;;;;;5100735;28;20047;-84
2022/01/29 09:20:10;;;;;;;10.35;4.43;;;9.30;99.90;;;;;;5082346;28;20234;-83
2022/01/29 09:22:37;;;;;;;13.23;4.35;;;9.40;99.90;;;;;;5096165;28;20067;-82
2022/01/29 09:25:03;;;;;;;12.95;4.28;;;9.30;99.90;;;;;;5110739;28;20143;-83
2022/01/29 09:27:29;;;;;;;11.93;4.70;;;9.40;99.90;;;;;;5100057;28;20067;-83
2022/01/29 09:29:54;;;;;;;9.48;4.15;;;9.40;99.90;;;;;;5100428;28;20124;-83
2022/01/29 09:32:20;;;;;;;10.45;5.25;;;9.40;99.90;;;;;;5094916;28;20041;-84
2022/01/29 09:34:45;;;;;;;23.20;5.03;;;9.30;99.90;;;;;;5077146;28;20123;-82
2022/01/29 09:37:11;;;;;;;13.52;4.35;;;9.30;99.90;;;;;;5076702;28;20089;-84
2022/01/29 09:39:38;;;;;;;9.82;4.22;;;9.30;99.90;;;;;;5094217;28;20036;-85
2022/01/29 09:42:04;;;;;;;9.15;3.70;;;9.30;99.90;;;;;;5094563;28;20040;-84
2022/01/29 09:44:34;;;;;;;16.52;4.47;;;9.30;99.90;;;;;;5096496;28;20055;-84
2022/01/29 09:47:00;;;;;;;6.47;3.15;;;9.30;99.90;;;;;;5104660;28;20047;-86
2022/01/29 09:49:31;;;;;;;9.93;3.40;;;9.30;99.90;;;;;;5093377;28;20048;-83
2022/01/29 09:51:57;;;;;;;8.60;3.53;;;9.40;99.90;;;;;;5088075;28;20044;-83
2022/01/29 09:54:22;;;;;;;16.20;4.75;;;9.40;99.90;;;;;;5097047;28;20050;-83
2022/01/29 09:56:48;;;;;;;13.82;3.53;;;9.40;99.90;;;;;;5094888;28;20062;-84
2022/01/29 09:59:13;;;;;;;11.45;4.15;;;9.50;99.90;;;;;;5072214;28;20039;-82
2022/01/29 10:01:39;;;;;;;13.68;2.75;;;9.50;99.90;;;;;;5087658;28;20465;-84
2022/01/29 10:04:06;;;;;;;9.30;2.83;;;9.60;99.90;;;;;;5100494;28;20469;-85
2022/01/29 10:06:33;;;;;;;14.63;4.25;;;9.60;99.90;;;;;;5097852;28;20048;-84
2022/01/29 10:09:04;;;;;;;27.92;4.80;;;9.60;99.90;;;;;;5077084;28;20097;-86
2022/01/29 10:11:30;;;;;;;6.75;2.63;;;9.60;99.90;;;;;;5097371;28;20092;-85
2022/01/29 10:14:03;;;;;;;9.88;2.50;;;9.70;99.90;;;;;;5100618;28;20044;-85
2022/01/29 10:16:31;;;;;;;12.60;3.72;;;9.60;99.90;;;;;;5072540;28;20055;-84
2022/01/29 10:19:03;;;;;;;7.68;2.45;;;9.60;99.90;;;;;;5058828;28;20055;-84
2022/01/29 10:21:41;;;;;;;9.05;2.88;;;9.70;99.90;;;;;;5090997;28;20036;-83
2022/01/29 10:24:15;;;;;;;11.90;2.33;;;9.70;99.90;;;;;;5072436;28;20050;-85
2022/01/29 10:26:47;;;;;;;7.90;2.55;;;9.80;99.90;;;;;;5090840;28;20051;-83
2022/01/29 10:29:24;;;;;;;9.55;3.15;;;9.80;99.90;;;;;;5091108;28;20378;-76
2022/01/29 10:32:00;;;;;;;22.00;3.60;;;9.90;99.90;;;;;;5094803;28;20040;-83
2022/01/29 10:34:29;;;;;;;11.77;2.60;;;9.80;99.90;;;;;;5097057;28;20040;-84
2022/01/29 10:37:23;;;;;;;12.07;3.13;;;9.90;99.90;;;;;;5108180;27;20069;-81
2022/01/29 10:39:50;;;;;;;7.57;2.03;;;9.90;99.90;;;;;;5101501;28;20074;-83
2022/01/29 10:42:37;;;;;;;14.07;2.85;;;9.90;99.90;;;;;;5085027;28;20128;-83
2022/01/29 10:45:06;;;;;;;9.82;2.78;;;9.90;99.90;;;;;;5099241;28;20134;-86
2022/01/29 10:47:55;;;;;;;12.32;2.72;;;9.90;99.90;;;;;;5109716;27;20109;-86
2022/01/29 10:50:21;;;;;;;8.18;3.28;;;9.90;99.90;;;;;;5093702;28;20138;-86
2022/01/29 10:52:48;;;;;;;12.13;2.83;;;9.80;99.90;;;;;;5087653;28;20123;-87
2022/01/29 10:55:13;;;;;;;11.20;2.60;;;9.90;99.90;;;;;;5101453;28;20419;-86
2022/01/29 10:57:40;;;;;;;8.27;2.15;;;9.90;99.90;;;;;;5093341;28;20127;-86
2022/01/29 11:00:15;;;;;;;12.70;2.95;;;9.90;99.90;;;;;;5078890;27;20044;-85
2022/01/29 11:02:41;;;;;;;8.90;2.90;;;10.00;99.90;;;;;;5093697;28;20090;-84
2022/01/29 11:05:07;;;;;;;20.83;3.67;;;10.00;99.90;;;;;;5103704;27;20676;-87
2022/01/29 11:07:34;;;;;;;13.73;3.63;;;10.00;99.90;;;;;;5099890;28;20123;-86
2022/01/29 11:10:02;;;;;;;11.75;2.60;;;10.00;99.90;;;;;;5095684;28;20405;-85
2022/01/29 11:12:30;;;;;;;8.60;3.22;;;10.00;99.90;;;;;;5092426;28;20416;-80
2022/01/29 11:14:59;;;;;;;14.10;2.80;;;10.00;99.90;;;;;;5104824;28;20131;-79
2022/01/29 11:17:29;;;;;;;14.70;2.72;;;10.00;99.90;;;;;;5093590;28;20042;-84
2022/01/29 11:19:55;;;;;;;;;;;10.00;99.90;;;;;;5104377;28;20115;-84
2022/01/29 11:22:24;;;;;;;8.60;2.40;;;10.00;99.90;;;;;;5073828;28;20416;-84
2022/01/29 11:24:58;;;;;;;6.90;1.70;;;10.00;99.90;;;;;;5103818;28;20054;-80
2022/01/29 11:27:29;;;;;;;7.22;2.33;;;10.10;99.90;;;;;;5092558;28;20044;-82
2022/01/29 11:30:00;;;;;;;10.43;2.92;;;10.10;99.90;;;;;;5097519;28;20071;-82
2022/01/29 11:32:27;;;;;;;11.65;2.65;;;10.10;99.90;;;;;;5098318;28;20490;-86
2022/01/29 11:35:12;;;;;;;10.13;2.42;;;10.20;99.90;;;;;;5109427;28;20401;-83
2022/01/29 11:37:39;;;;;;;9.07;3.13;;;10.20;99.90;;;;;;5095538;28;20099;-83
2022/01/29 11:40:25;;;;;;;10.95;2.72;;;10.20;99.90;;;;;;5089495;28;20524;-83
2022/01/29 11:43:12;;;;;;;9.98;2.90;;;10.30;99.90;;;;;;5104291;28;20532;-84
2022/01/29 11:45:54;;;;;;;7.32;2.67;;;10.40;99.90;;;;;;5108818;28;20122;-84
2022/01/29 11:48:22;;;;;;;9.88;2.88;;;10.50;99.90;;;;;;5096126;28;20136;-82
2022/01/29 11:50:49;;;;;;;5.72;1.85;;;10.40;99.90;;;;;;5104634;28;20101;-82
2022/01/29 11:53:17;;;;;;;5.88;2.55;;;10.50;99.90;;;;;;5102447;28;20062;-79
2022/01/29 11:55:45;;;;;;;12.13;2.40;;;10.50;99.90;;;;;;5105856;28;20139;-80
2022/01/29 11:58:18;;;;;;;23.38;4.90;;;10.50;99.90;;;;;;5112777;28;20040;-82
2022/01/29 12:00:46;;;;;;;12.35;2.20;;;10.40;99.90;;;;;;5085359;28;20485;-86
2022/01/29 12:03:39;;;;;;;8.85;2.33;;;10.50;99.90;;;;;;5098841;28;20055;-83
2022/01/29 12:06:11;;;;;;;19.90;4.28;;;10.60;99.90;;;;;;5103267;27;20035;-85
2022/01/29 12:08:57;;;;;;;11.95;2.83;;;10.60;99.90;;;;;;5117069;27;20039;-85
2022/01/29 12:11:23;;;;;;;11.35;2.08;;;10.60;99.90;;;;;;5077793;28;20080;-84
2022/01/29 12:14:14;;;;;;;7.63;1.38;;;10.60;99.90;;;;;;5100311;28;20055;-84
2022/01/29 12:16:47;;;;;;;8.27;2.38;;;10.50;99.90;;;;;;5093181;28;20048;-84
2022/01/29 12:19:31;;;;;;;8.07;2.22;;;10.60;99.90;;;;;;5101500;28;20040;-78
2022/01/29 12:21:57;;;;;;;17.35;3.45;;;10.60;99.90;;;;;;5101724;27;21189;-86
2022/01/29 12:24:22;;;;;;;10.82;1.80;;;10.50;99.90;;;;;;5112895;28;20043;-85
2022/01/29 12:26:57;;;;;;;10.00;1.98;;;10.50;99.90;;;;;;5110200;28;20039;-87
2022/01/29 12:29:23;;;;;;;7.95;1.65;;;10.60;99.90;;;;;;5093612;28;20066;-86
2022/01/29 12:31:50;;;;;;;13.55;2.92;;;10.70;99.90;;;;;;5079974;28;20518;-84
2022/01/29 12:34:16;;;;;;;11.80;3.13;;;10.70;99.90;;;;;;5107747;28;20089;-86
2022/01/29 12:36:42;;;;;;;6.55;1.88;;;10.80;99.90;;;;;;5090884;28;20044;-84
2022/01/29 12:39:09;;;;;;;17.15;2.55;;;10.90;99.90;;;;;;5106142;28;20040;-84
2022/01/29 12:41:39;;;;;;;15.20;3.42;;;10.80;99.90;;;;;;5095981;28;20105;-85
2022/01/29 12:44:08;;;;;;;8.52;2.35;;;10.80;99.90;;;;;;5113578;28;20046;-84
2022/01/29 12:46:34;;;;;;;11.98;3.35;;;10.80;99.90;;;;;;5108985;28;20048;-86
2022/01/29 12:49:07;;;;;;;19.23;4.03;;;10.80;99.90;;;;;;5075867;28;20079;-84
2022/01/29 12:51:48;;;;;;;12.60;2.65;;;10.70;99.90;;;;;;5104167;28;20048;-83
2022/01/29 12:54:14;;;;;;;10.95;2.20;;;10.60;99.90;;;;;;5100857;28;20451;-85